Time;durP1;ratioP1;P1;durP2;ratioP2;P2;SDS_P1;SDS_P2;PMS_P1;PMS_P2;Temp;Humidity;BMP_temperature;BMP_pressure;BME280_temperature;BME280_humidity;BME280_pressure;Samples;Min_cycle;Max_cycle;Signal;HPM_P1;HPM_P2
2022/05/14 00:00:54;;;;;;;3.33;0.70;;;;;;;13.72;63.54;102118.28;4999169;28;101163;-34
2022/05/14 00:03:20;;;;;;;8.60;1.25;;;;;;;13.61;64.52;102109.84;4999625;28;100725;-34
2022/05/14 00:05:45;;;;;;;1.67;0.90;;;;;;;13.67;65.38;102117.66;5017795;28;96534;-34
2022/05/14 00:08:12;;;;;;;5.72;1.33;;;;;;;13.62;64.58;102108.84;5017654;28;96830;-34
2022/05/14 00:13:24;;;;;;;7.50;1.20;;;;;;;13.54;64.70;102103.84;5017336;28;97030;-34
2022/05/14 00:15:50;;;;;;;4.70;0.70;;;;;;;13.54;65.60;102102.97;4999730;28;96700;-34
2022/05/14 00:18:15;;;;;;;4.53;0.95;;;;;;;13.57;65.57;102106.38;4999625;28;96869;-34
2022/05/14 00:20:41;;;;;;;6.75;0.95;;;;;;;13.57;65.63;102108.22;5017563;28;97196;-34
2022/05/14 00:23:07;;;;;;;2.28;0.88;;;;;;;13.56;65.96;102103.72;5017578;28;97975;-34
2022/05/14 00:25:35;;;;;;;1.98;0.98;;;;;;;13.56;67.02;102088.28;5016879;28;105242;-34
2022/05/14 00:28:00;;;;;;;3.70;1.15;;;;;;;13.49;64.45;102096.84;5017441;28;96768;-34
2022/05/14 00:30:27;;;;;;;7.35;1.30;;;;;;;13.51;66.55;102103.97;5016805;28;114214;-34
2022/05/14 00:32:53;;;;;;;4.93;1.15;;;;;;;13.48;66.35;102097.84;4999039;28;101464;-34
2022/05/14 00:35:19;;;;;;;4.40;1.25;;;;;;;13.48;66.46;102082.38;5017503;28;96574;-34
2022/05/14 00:37:44;;;;;;;4.35;0.88;;;;;;;13.42;66.94;102080.00;4999261;28;96849;-34
2022/05/14 00:40:19;;;;;;;2.58;1.05;;;;;;;13.45;67.09;102085.28;5017225;28;97381;-34
2022/05/14 00:42:44;;;;;;;2.30;1.00;;;;;;;13.45;67.67;102088.00;5016144;28;101175;-34
2022/05/14 00:45:12;;;;;;;5.28;1.13;;;;;;;13.51;67.02;102087.63;5016508;28;117154;-34
2022/05/14 00:47:40;;;;;;;4.60;1.40;;;;;;;13.52;66.57;102089.41;5017209;28;96823;-34
2022/05/14 00:50:36;;;;;;;4.35;1.80;;;;;;;13.45;66.75;102087.13;4998280;28;99656;-34
2022/05/14 00:53:07;;;;;;;4.18;1.25;;;;;;;13.48;67.20;102089.66;5017478;28;97414;-34
2022/05/14 00:55:32;;;;;;;9.17;1.27;;;;;;;13.49;66.40;102083.25;4999152;28;96724;-34
2022/05/14 00:58:00;;;;;;;5.93;1.85;;;;;;;13.46;66.97;102077.97;5017052;28;96829;-34
2022/05/14 01:00:25;;;;;;;5.90;1.45;;;;;;;13.56;66.78;102093.75;5014130;28;101465;-34
2022/05/14 01:02:52;;;;;;;6.45;1.60;;;;;;;13.48;66.44;102095.09;5016575;28;99307;-34
2022/05/14 01:05:20;;;;;;;5.53;1.38;;;;;;;13.48;67.31;102092.38;4999238;28;96558;-34
2022/05/14 01:07:49;;;;;;;6.38;1.65;;;;;;;13.45;68.87;102082.53;4999316;28;96942;-33
2022/05/14 01:10:17;;;;;;;3.90;1.67;;;;;;;13.49;67.20;102085.97;4998484;28;101358;-34
2022/05/14 01:12:58;;;;;;;6.65;1.58;;;;;;;13.43;67.25;102087.19;4998079;28;101051;-33
2022/05/14 01:15:36;;;;;;;3.63;1.77;;;;;;;13.41;68.00;102080.06;5016725;28;96669;-34
2022/05/14 01:18:02;;;;;;;2.33;1.45;;;;;;;13.36;69.16;102091.19;4998543;28;96783;-34
2022/05/14 01:20:27;;;;;;;7.40;1.65;;;;;;;13.26;69.74;102087.19;5016333;28;98917;-34
2022/05/14 01:23:04;;;;;;;5.68;1.83;;;;;;;13.29;67.54;102095.22;5016360;28;97301;-34
2022/05/14 01:28:20;;;;;;;6.53;1.65;;;;;;;13.34;68.57;102098.56;5015702;28;96566;-34
2022/05/14 01:30:56;;;;;;;5.88;1.50;;;;;;;13.33;68.69;102097.69;5016123;28;99687;-34
2022/05/14 01:33:22;;;;;;;9.57;2.03;;;;;;;13.35;67.36;102092.19;4998529;28;100841;-34
2022/05/14 01:35:48;;;;;;;8.82;1.90;;;;;;;13.31;68.29;102096.00;5015156;28;96579;-34
2022/05/14 01:38:14;;;;;;;4.20;1.60;;;;;;;13.32;68.62;102103.19;5016761;28;96787;-34
2022/05/14 01:40:40;;;;;;;6.63;1.65;;;;;;;13.25;69.04;102088.13;4997783;28;100681;-34
2022/05/14 01:43:05;;;;;;;5.95;1.70;;;;;;;13.25;68.31;102102.63;5016407;28;97843;-34
2022/05/14 01:45:32;;;;;;;6.35;1.98;;;;;;;13.12;69.85;102099.66;5016459;28;96633;-34
2022/05/14 01:47:57;;;;;;;5.70;1.73;;;;;;;13.12;69.69;102118.69;4998118;28;96902;-34
2022/05/14 01:50:22;;;;;;;4.63;1.80;;;;;;;13.10;70.31;102100.69;5015277;28;119179;-34
2022/05/14 01:52:48;;;;;;;6.28;2.45;;;;;;;13.08;69.94;102097.19;5015237;28;126352;-34
2022/05/14 01:55:13;;;;;;;6.22;2.05;;;;;;;13.12;68.98;102101.50;5015398;28;117215;-33
2022/05/14 01:57:38;;;;;;;4.28;1.80;;;;;;;13.10;68.97;102097.97;5015160;28;96931;-34
2022/05/14 02:00:08;;;;;;;8.38;2.13;;;;;;;13.10;70.49;102111.59;5014994;28;127038;-34
2022/05/14 02:02:33;;;;;;;6.80;2.08;;;;;;;12.98;69.23;102101.34;4997535;28;100834;-34
2022/05/14 02:04:58;;;;;;;8.25;1.95;;;;;;;12.94;71.47;102117.81;5014782;28;116345;-34
2022/05/14 02:07:24;;;;;;;4.85;2.15;;;;;;;12.91;69.84;102111.66;5015204;28;117600;-34
2022/05/14 02:09:49;;;;;;;3.72;1.67;;;;;;;12.94;71.35;102111.47;5015816;28;97905;-34
2022/05/14 02:12:14;;;;;;;10.80;2.17;;;;;;;12.96;69.50;102112.28;5014385;28;116477;-34
2022/05/14 02:14:39;;;;;;;8.75;2.08;;;;;;;12.91;69.28;102108.94;5014943;28;116860;-34
2022/05/14 02:17:05;;;;;;;5.65;1.60;;;;;;;12.87;70.82;102101.88;5015122;28;110948;-34
2022/05/14 02:19:30;;;;;;;4.20;1.98;;;;;;;12.90;72.07;102109.91;5015577;28;97984;-34
2022/05/14 02:21:55;;;;;;;5.28;2.38;;;;;;;12.96;70.94;102128.59;5014617;28;99320;-34
2022/05/14 02:24:21;;;;;;;6.50;2.00;;;;;;;12.94;69.55;102119.66;5015832;28;96490;-34
2022/05/14 02:26:46;;;;;;;8.80;2.17;;;;;;;12.94;71.31;102115.13;5014832;28;116076;-34
2022/05/14 02:29:11;;;;;;;11.75;1.98;;;;;;;12.96;71.83;102113.16;5015230;28;97281;-34
2022/05/14 02:31:37;;;;;;;6.32;1.85;;;;;;;12.84;71.71;102108.34;5014367;28;121241;-34
2022/05/14 02:34:02;;;;;;;6.70;2.13;;;;;;;12.84;71.43;102116.50;5014976;28;112996;-34
2022/05/14 02:36:27;;;;;;;7.68;2.10;;;;;;;12.81;70.92;102115.81;5015853;28;96757;-34
2022/05/14 02:38:53;;;;;;;5.07;2.03;;;;;;;12.87;70.52;102129.97;5015475;28;97975;-34
2022/05/14 02:41:18;;;;;;;9.32;2.85;;;;;;;12.85;71.18;102122.84;5015267;28;98292;-34
2022/05/14 02:43:44;;;;;;;8.60;2.50;;;;;;;12.86;70.92;102135.47;5015738;28;96617;-34
2022/05/14 02:46:12;;;;;;;10.00;2.20;;;;;;;12.85;70.63;102126.44;5015894;28;96748;-34
2022/05/14 02:48:38;;;;;;;6.38;2.63;;;;;;;12.86;70.72;102122.75;5014832;28;99411;-34
2022/05/14 02:51:04;;;;;;;7.93;2.65;;;;;;;12.84;71.50;102138.28;5015090;28;97981;-34
2022/05/14 02:53:29;;;;;;;7.45;2.67;;;;;;;12.85;71.40;102133.75;5014744;28;96615;-34
2022/05/14 02:55:55;;;;;;;12.60;2.97;;;;;;;12.84;71.29;102134.69;5015242;28;96706;-34
2022/05/14 03:01:05;;;;;;;4.07;1.98;;;;;;;12.81;70.57;102132.13;5014971;28;97121;-34
2022/05/14 03:03:31;;;;;;;5.20;2.03;;;;;;;12.78;71.41;102135.88;5015301;28;96592;-34
2022/05/14 03:05:56;;;;;;;8.93;3.00;;;;;;;12.74;71.18;102126.09;5015038;28;96850;-34
2022/05/14 03:08:21;;;;;;;6.65;2.30;;;;;;;12.80;70.12;102133.97;5014863;28;97952;-34
2022/05/14 03:10:47;;;;;;;5.20;2.38;;;;;;;12.82;70.91;102142.91;5014212;28;127307;-34
2022/05/14 03:13:12;;;;;;;7.90;2.42;;;;;;;12.77;71.95;102127.78;5013685;28;114985;-34
2022/05/14 03:15:37;;;;;;;5.32;2.60;;;;;;;12.77;72.56;102130.50;5014466;28;109704;-34
2022/05/14 03:18:03;;;;;;;9.68;2.55;;;;;;;12.80;71.29;102131.25;5014266;28;97920;-34
2022/05/14 03:20:28;;;;;;;7.70;2.67;;;;;;;12.73;71.20;102119.78;5014904;28;97807;-34
2022/05/14 03:22:53;;;;;;;9.45;2.67;;;;;;;12.78;70.92;102124.13;5013657;28;101163;-34
2022/05/14 03:25:18;;;;;;;6.95;2.67;;;;;;;12.72;70.28;102109.84;5014166;28;112636;-34
2022/05/14 03:27:44;;;;;;;7.95;2.38;;;;;;;12.77;70.31;102127.78;5013694;28;126550;-34
2022/05/14 03:30:10;;;;;;;9.65;2.53;;;;;;;12.63;71.34;102104.91;5014273;28;99155;-34
2022/05/14 03:32:35;;;;;;;6.65;2.88;;;;;;;12.72;71.45;102125.28;5015002;28;96478;-34
2022/05/14 03:35:05;;;;;;;11.40;2.65;;;;;;;12.65;72.11;102127.44;5015330;28;96820;-34
2022/05/14 03:37:31;;;;;;;10.35;3.33;;;;;;;12.61;70.84;102128.56;4996387;28;100959;-34
2022/05/14 03:39:56;;;;;;;3.17;1.70;;;;;;;12.60;73.39;102134.06;4996332;28;101157;-33
2022/05/14 03:42:21;;;;;;;5.57;2.28;;;;;;;12.48;72.06;102116.53;5013121;28;117824;-34
2022/05/14 03:44:49;;;;;;;7.20;2.88;;;;;;;12.57;72.41;102126.06;5014533;28;96730;-34
2022/05/14 03:47:15;;;;;;;11.00;2.60;;;;;;;12.57;72.21;102117.91;5029307;28;121249;-34
2022/05/14 03:49:41;;;;;;;11.00;3.10;;;;;;;12.60;71.29;102128.63;5014063;28;99344;-34
2022/05/14 03:52:06;;;;;;;4.22;2.17;;;;;;;12.61;71.59;102131.28;5014567;28;96493;-34
2022/05/14 03:54:32;;;;;;;8.07;2.70;;;;;;;12.60;71.94;102129.50;5014144;28;97157;-34
2022/05/14 03:56:57;;;;;;;9.10;2.33;;;;;;;12.54;71.62;102117.09;5013966;28;99443;-34
2022/05/14 03:59:23;;;;;;;7.95;2.42;;;;;;;12.62;71.91;102119.44;5014394;28;105836;-34
2022/05/14 04:01:48;;;;;;;6.80;2.72;;;;;;;12.60;72.84;102123.19;5014299;28;96773;-34
2022/05/14 04:04:13;;;;;;;4.40;2.45;;;;;;;12.56;72.95;102127.00;5013589;28;113472;-34
2022/05/14 04:06:38;;;;;;;9.65;2.88;;;;;;;12.56;73.22;102129.72;5013462;28;99272;-34
2022/05/14 04:09:04;;;;;;;5.05;2.47;;;;;;;12.54;72.09;102129.81;5014140;28;97725;-33
2022/05/14 04:11:29;;;;;;;6.70;3.30;;;;;;;12.59;71.62;102135.91;5013976;28;96722;-34
2022/05/14 04:13:56;;;;;;;7.30;3.00;;;;;;;12.60;71.93;102128.63;5013819;28;96816;-34
2022/05/14 04:16:21;;;;;;;7.97;2.47;;;;;;;12.55;72.03;102120.69;5012685;28;100981;-34
2022/05/14 04:18:46;;;;;;;8.25;2.58;;;;;;;12.54;72.41;102119.81;5013458;28;106633;-34
2022/05/14 04:21:12;;;;;;;6.30;2.67;;;;;;;12.50;73.96;102112.78;5014367;28;96414;-34
2022/05/14 04:23:37;;;;;;;9.13;2.50;;;;;;;12.50;73.46;102139.06;5013999;28;116457;-34
2022/05/14 04:26:02;;;;;;;8.18;2.03;;;;;;;12.49;73.35;102134.63;5012991;28;126601;-34
2022/05/14 04:28:28;;;;;;;6.85;2.35;;;;;;;12.51;73.21;102135.38;5013704;28;97834;-34
2022/05/14 04:30:53;;;;;;;14.10;2.75;;;;;;;12.52;72.43;102142.59;5013351;28;96724;-34
2022/05/14 04:33:19;;;;;;;8.70;2.25;;;;;;;12.50;72.84;102136.34;5014055;28;96846;-34
2022/05/14 04:35:45;;;;;;;9.07;2.85;;;;;;;12.45;72.33;102135.72;4999178;28;101130;-34
2022/05/14 04:38:10;;;;;;;6.75;3.03;;;;;;;12.54;71.75;102151.56;5017332;28;98746;-34
2022/05/14 04:40:37;;;;;;;8.63;2.65;;;;;;;12.57;72.75;102151.41;5017546;28;96482;-34
2022/05/14 04:43:07;;;;;;;5.85;2.75;;;;;;;12.59;71.67;102151.34;4999389;28;96871;-34
2022/05/14 04:45:33;;;;;;;6.85;2.42;;;;;;;12.61;72.96;102154.84;4999086;28;100773;-34
2022/05/14 04:47:58;;;;;;;4.45;2.08;;;;;;;12.56;72.59;102149.66;5017373;28;99185;-34
2022/05/14 04:50:24;;;;;;;3.97;2.33;;;;;;;12.60;71.96;102148.53;5017188;28;96606;-34
2022/05/14 04:52:49;;;;;;;9.48;2.90;;;;;;;12.70;71.92;102159.81;5017267;28;96853;-34
2022/05/14 04:55:14;;;;;;;10.40;3.20;;;;;;;12.71;72.27;102157.03;5015921;28;109145;-34
2022/05/14 04:57:43;;;;;;;10.68;2.95;;;;;;;12.75;71.58;102164.09;5016604;28;99104;-34
2022/05/14 05:00:10;;;;;;;6.25;2.67;;;;;;;12.75;71.19;102166.81;4999033;28;97067;-34
2022/05/14 05:05:19;;;;;;;7.00;2.38;;;;;;;12.80;71.33;102152.09;5016872;28;97902;-33
2022/05/14 05:07:46;;;;;;;8.90;2.63;;;;;;;12.81;71.78;102160.19;5016677;28;97750;-34
2022/05/14 05:10:12;;;;;;;9.13;2.55;;;;;;;12.88;71.71;102163.47;5016941;28;96514;-34
2022/05/14 05:12:37;;;;;;;7.95;3.05;;;;;;;12.93;71.66;102170.44;5017027;28;96965;-33
2022/05/14 05:15:02;;;;;;;5.28;2.63;;;;;;;12.92;71.78;102159.66;5015794;28;125292;-34
2022/05/14 05:17:28;;;;;;;6.32;2.63;;;;;;;12.94;72.22;102168.59;5016187;28;100068;-34
2022/05/14 05:19:53;;;;;;;10.00;2.88;;;;;;;12.96;72.00;102158.53;5015368;28;117870;-33
2022/05/14 05:22:18;;;;;;;9.48;2.85;;;;;;;13.10;71.52;102179.59;5015894;28;116447;-34
2022/05/14 05:24:44;;;;;;;12.05;2.65;;;;;;;13.13;70.96;102180.34;5015503;28;126622;-34
2022/05/14 05:27:09;;;;;;;4.28;2.67;;;;;;;13.14;73.99;102179.38;5016553;28;97730;-34
2022/05/14 05:29:34;;;;;;;6.68;2.80;;;;;;;13.17;71.46;102179.19;5016678;28;96628;-34
2022/05/14 05:32:00;;;;;;;5.90;2.65;;;;;;;13.20;71.72;102166.41;5016095;28;108165;-34
2022/05/14 05:34:25;;;;;;;8.23;2.90;;;;;;;13.39;70.29;102186.28;5016451;28;96718;-34
2022/05/14 05:36:52;;;;;;;5.43;2.95;;;;;;;13.50;70.62;102189.34;5016679;28;97211;-34
2022/05/14 05:39:17;;;;;;;5.50;2.72;;;;;;;13.58;70.83;102191.66;5016357;28;96657;-34
2022/05/14 05:41:43;;;;;;;7.00;3.35;;;;;;;13.56;71.18;102166.34;5016663;28;96774;-34
2022/05/14 05:44:08;;;;;;;5.97;2.88;;;;;;;13.56;71.46;102183.59;5014792;28;127352;-34
2022/05/14 05:46:35;;;;;;;5.18;2.25;;;;;;;13.59;70.39;102180.69;5015293;28;99188;-34
2022/05/14 05:49:00;;;;;;;9.15;3.05;;;;;;;13.74;69.92;102187.16;4998271;28;96697;-34
2022/05/14 05:51:25;;;;;;;7.95;3.38;;;;;;;13.87;70.06;102191.94;5016332;28;96747;-33
2022/05/14 05:56:47;;;;;;;9.68;3.00;;;;;;;14.05;70.22;102187.34;5016417;28;97018;-34
2022/05/14 05:59:14;;;;;;;9.48;2.67;;;;;;;14.09;69.93;102183.50;5014857;28;96718;-34
2022/05/14 06:01:40;;;;;;;10.95;2.63;;;;;;;14.18;69.96;102194.78;4998564;28;96949;-34
2022/05/14 06:04:05;;;;;;;7.20;3.20;;;;;;;14.31;69.31;102197.69;4997478;28;100893;-34
2022/05/14 06:06:31;;;;;;;4.90;2.85;;;;;;;14.40;70.51;102194.44;5015634;28;99055;-34
2022/05/14 06:08:57;;;;;;;4.68;2.63;;;;;;;14.45;69.12;102189.63;5014130;28;96582;-34
2022/05/14 06:11:23;;;;;;;6.25;3.03;;;;;;;14.54;68.96;102182.81;5015991;28;96812;-34
2022/05/14 06:13:48;;;;;;;8.90;3.40;;;;;;;14.68;69.19;102200.22;5015370;28;97890;-34
2022/05/14 06:16:14;;;;;;;13.07;3.58;;;;;;;14.71;69.06;102194.59;5015363;28;99460;-34
2022/05/14 06:18:42;;;;;;;8.10;3.00;;;;;;;14.83;69.39;102213.00;4997326;28;96565;-34
2022/05/14 06:21:08;;;;;;;6.50;3.00;;;;;;;14.97;68.62;102199.41;5015975;28;96469;-34
2022/05/14 06:23:34;;;;;;;9.43;2.50;;;;;;;15.00;67.86;102180.13;4997474;28;100980;-34
2022/05/14 06:25:59;;;;;;;6.70;2.13;;;;;;;15.20;67.63;102197.16;5016006;28;97935;-34
2022/05/14 06:28:25;;;;;;;6.32;2.03;;;;;;;15.38;66.44;102208.84;5015890;28;96548;-33
2022/05/14 06:30:50;;;;;;;7.82;2.10;;;;;;;15.48;66.41;102213.66;5015678;28;96812;-34
2022/05/14 06:33:18;;;;;;;6.45;2.25;;;;;;;15.56;65.97;102210.44;5014802;28;97891;-34
2022/05/14 06:35:44;;;;;;;8.30;2.40;;;;;;;15.71;65.83;102214.16;4997166;28;100800;-34
2022/05/14 06:38:09;;;;;;;10.13;2.40;;;;;;;15.82;65.69;102208.00;5014266;28;96864;-34
2022/05/14 06:40:36;;;;;;;8.70;2.72;;;;;;;15.93;65.41;102210.97;4997551;28;96814;-33
2022/05/14 06:43:01;;;;;;;11.88;2.70;;;;;;;16.02;65.30;102215.88;4997188;28;100446;-34
2022/05/14 06:45:27;;;;;;;7.65;2.72;;;;;;;16.15;65.11;102215.97;5015294;28;97828;-33
2022/05/14 06:47:53;;;;;;;6.53;2.40;;;;;;;16.31;64.55;102216.75;5015517;28;96704;-34
2022/05/14 06:50:18;;;;;;;7.18;2.60;;;;;;;16.29;63.86;102204.16;5015847;28;96782;-33
2022/05/14 06:52:48;;;;;;;3.80;1.92;;;;;;;16.46;64.01;102200.31;5015365;28;97549;-33
2022/05/14 06:55:19;;;;;;;14.82;2.83;;;;;;;16.72;63.34;102210.44;4996932;28;101205;-33
2022/05/14 06:57:45;;;;;;;9.32;2.65;;;;;;;16.76;63.09;102214.75;4996699;28;96728;-33
2022/05/14 07:00:11;;;;;;;9.80;3.38;;;;;;;16.92;62.81;102224.69;4997290;28;96857;-33
2022/05/14 07:02:37;;;;;;;7.07;2.60;;;;;;;17.02;62.55;102224.97;4996505;28;101202;-34
2022/05/14 07:07:47;;;;;;;14.13;2.42;;;;;;;17.25;62.22;102210.59;5028741;28;96795;-34
2022/05/14 07:10:14;;;;;;;15.07;3.05;;;;;;;17.32;61.79;102203.72;5014939;28;96858;-34
2022/05/14 07:12:39;;;;;;;12.55;3.28;;;;;;;17.52;61.66;102229.75;4996281;28;100889;-32
2022/05/14 07:15:06;;;;;;;8.90;3.08;;;;;;;17.64;60.99;102233.53;5014640;28;104534;-34
2022/05/14 07:17:32;;;;;;;13.02;2.67;;;;;;;17.64;60.52;102233.53;4996716;28;96738;-34
2022/05/14 07:19:57;;;;;;;8.73;2.67;;;;;;;17.74;60.12;102237.38;5015101;28;96899;-34
2022/05/14 07:22:23;;;;;;;11.35;2.97;;;;;;;17.77;60.41;102226.19;5014408;28;97419;-34
2022/05/14 07:24:48;;;;;;;13.27;3.33;;;;;;;17.89;59.66;102221.72;5014517;28;98590;-34
2022/05/14 07:27:14;;;;;;;10.25;2.85;;;;;;;17.99;59.45;102228.31;5014835;28;96447;-34
2022/05/14 07:29:41;;;;;;;16.10;2.80;;;;;;;18.03;59.76;102238.09;5014577;28;96882;-34
2022/05/14 07:32:09;;;;;;;7.90;2.90;;;;;;;18.12;59.58;102227.47;4996426;28;103654;-34
2022/05/14 07:34:34;;;;;;;13.80;3.05;;;;;;;18.25;59.27;102229.19;4996554;28;99007;-34
2022/05/14 07:37:16;;;;;;;7.93;3.25;;;;;;;18.45;58.41;102232.38;5014629;28;96595;-34
2022/05/14 07:40:16;;;;;;;8.63;2.85;;;;;;;18.58;57.95;102226.88;5015152;28;96675;-34
2022/05/14 07:42:46;;;;;;;11.20;2.70;;;;;;;18.68;58.22;102226.06;4952260;28;101367;-34
2022/05/14 07:45:17;;;;;;;9.02;2.83;;;;;;;18.72;57.64;102225.84;4946017;28;102328;-34
2022/05/14 07:47:42;;;;;;;11.18;2.60;;;;;;;18.65;57.20;102231.78;4996157;28;96670;-34
2022/05/14 07:50:08;;;;;;;11.68;2.55;;;;;;;18.81;57.07;102248.03;5014147;28;103759;-34
2022/05/14 07:52:35;;;;;;;5.45;2.40;;;;;;;18.95;56.87;102240.63;4996035;28;101123;-34
2022/05/14 07:55:01;;;;;;;15.43;3.42;;;;;;;19.14;56.35;102248.34;4996085;28;100991;-34
2022/05/14 07:57:27;;;;;;;8.57;2.67;;;;;;;19.16;56.78;102243.63;5014900;28;96646;-33
2022/05/14 07:59:52;;;;;;;18.02;3.95;;;;;;;19.44;55.00;102240.53;5013318;28;115916;-34
2022/05/14 08:02:34;;;;;;;9.52;2.95;;;;;;;19.49;54.63;102234.69;5013629;28;112428;-34
2022/05/14 08:05:04;;;;;;;11.95;2.70;;;;;;;19.43;54.43;102248.91;5014477;28;97852;-34
2022/05/14 08:07:31;;;;;;;12.95;2.90;;;;;;;19.12;54.68;102254.00;5014378;28;96570;-34
2022/05/14 08:09:56;;;;;;;6.72;2.45;;;;;;;19.12;56.06;102255.88;4998669;28;96850;-34
2022/05/14 08:12:22;;;;;;;20.38;3.65;;;;;;;18.98;55.74;102238.53;4998769;28;100821;-34
2022/05/14 08:14:47;;;;;;;11.55;2.47;;;;;;;19.02;53.72;102251.06;5017517;28;97831;-34
2022/05/14 08:17:13;;;;;;;8.00;3.00;;;;;;;18.97;55.43;102247.75;5017980;28;96542;-34
2022/05/14 08:19:38;;;;;;;13.50;3.42;;;;;;;18.91;53.63;102239.13;5017635;28;96861;-34
2022/05/14 08:24:49;;;;;;;9.77;2.25;;;;;;;18.76;54.40;102238.34;5017818;28;97021;-34
2022/05/14 08:27:14;;;;;;;16.55;3.08;;;;;;;19.01;53.37;102238.31;5015263;28;118251;-34
2022/05/14 08:29:41;;;;;;;12.75;2.92;;;;;;;19.17;52.85;102246.28;5017966;28;96573;-34
2022/05/14 08:32:07;;;;;;;18.80;4.07;;;;;;;19.32;53.34;102257.97;4999037;28;101086;-34
2022/05/14 08:34:33;;;;;;;12.90;2.40;;;;;;;19.21;53.44;102256.03;4999204;28;100825;-34
2022/05/14 08:36:58;;;;;;;13.55;2.92;;;;;;;19.33;53.68;102254.22;5017099;28;96664;-34
2022/05/14 08:39:27;;;;;;;14.05;2.50;;;;;;;19.51;52.11;102251.94;5017305;28;96551;-34
2022/05/14 08:41:53;;;;;;;14.05;2.63;;;;;;;19.66;52.72;102253.50;4999019;28;100985;-34
2022/05/14 08:44:32;;;;;;;5.82;2.40;;;;;;;19.66;51.67;102260.84;4998980;28;100894;-34
2022/05/14 08:47:06;;;;;;;8.23;3.03;;;;;;;19.43;51.38;102248.91;4999444;28;96560;-34
2022/05/14 08:49:42;;;;;;;17.45;2.78;;;;;;;19.57;51.59;102247.81;5017258;28;96726;-34
2022/05/14 08:52:19;;;;;;;11.48;2.97;;;;;;;19.81;51.15;102245.97;4998864;28;101099;-34
2022/05/14 08:54:45;;;;;;;11.10;2.60;;;;;;;20.05;51.63;102245.03;4999331;28;98844;-34
2022/05/14 08:57:35;;;;;;;6.90;2.45;;;;;;;20.00;50.04;102253.63;5017121;28;96864;-34
2022/05/14 09:00:00;;;;;;;24.88;3.10;;;;;;;19.90;48.08;102250.75;5017482;28;96557;-34
2022/05/14 09:02:29;;;;;;;8.15;2.65;;;;;;;19.88;49.70;102247.22;4998350;28;100928;-34
2022/05/14 09:05:00;;;;;;;12.52;2.90;;;;;;;19.90;48.80;102244.34;5016871;28;97896;-34
2022/05/14 09:07:26;;;;;;;12.40;2.80;;;;;;;20.09;49.96;102230.91;5016930;28;96752;-34
2022/05/14 09:09:54;;;;;;;15.30;3.28;;;;;;;20.49;49.73;102251.56;5016720;28;96851;-34
2022/05/14 09:12:24;;;;;;;11.45;2.67;;;;;;;20.55;47.89;102257.47;4998165;28;100965;-34
2022/05/14 09:15:04;;;;;;;8.60;2.72;;;;;;;20.34;46.39;102256.44;5016516;28;102957;-34
2022/05/14 09:17:31;;;;;;;11.80;2.75;;;;;;;20.57;49.27;102252.72;5052596;27;96695;-34
2022/05/14 09:19:58;;;;;;;15.55;3.05;;;;;;;20.76;48.06;102240.19;5036400;27;96481;-34
2022/05/14 09:22:38;;;;;;;10.18;3.67;;;;;;;21.15;48.04;102236.00;5017963;28;102741;-34
2022/05/14 09:25:36;;;;;;;11.85;3.15;;;;;;;21.59;47.07;102245.13;5036669;28;97418;-34
2022/05/14 09:28:06;;;;;;;10.35;3.50;;;;;;;21.47;46.45;102237.91;5023993;28;96934;-33
2022/05/14 09:30:51;;;;;;;13.60;3.10;;;;;;;21.86;46.26;102241.00;5018442;28;96629;-34
2022/05/14 09:33:40;;;;;;;9.80;2.85;;;;;;;21.75;45.02;102241.91;5018260;28;101642;-34
2022/05/14 09:36:13;;;;;;;15.70;4.30;;;;;;;21.97;46.56;102248.31;5036508;28;99244;-34
2022/05/14 09:38:38;;;;;;;13.80;3.60;;;;;;;22.04;46.64;102250.38;5018472;28;96578;-34
2022/05/14 09:41:18;;;;;;;15.10;3.42;;;;;;;22.05;45.31;102257.69;5035740;28;117089;-34
2022/05/14 09:43:44;;;;;;;13.85;3.58;;;;;;;22.33;46.21;102246.09;5036706;28;97887;-34
2022/05/14 09:46:23;;;;;;;14.88;3.28;;;;;;;22.34;44.74;102245.97;5018439;28;101415;-34
2022/05/14 09:48:51;;;;;;;9.77;3.05;;;;;;;22.21;44.71;102243.41;5036493;28;96661;-34
2022/05/14 09:51:56;;;;;;;17.30;3.53;;;;;;;22.34;45.26;102253.38;5018029;28;96989;-34
2022/05/14 09:54:35;;;;;;;12.20;4.18;;;;;;;22.51;44.54;102254.63;5017327;28;101016;-34
2022/05/14 09:57:06;;;;;;;12.63;3.55;;;;;;;22.64;44.76;102252.50;5036122;28;98855;-34
2022/05/14 09:59:57;;;;;;;22.80;4.47;;;;;;;22.90;44.55;102244.59;5035923;28;96623;-34
2022/05/14 10:02:38;;;;;;;18.17;5.03;;;;;;;23.23;43.54;102250.81;5018146;28;96770;-34
2022/05/14 10:05:19;;;;;;;15.80;4.18;;;;;;;23.16;44.03;102247.72;5017723;28;101079;-34
2022/05/14 10:07:54;;;;;;;17.70;4.27;;;;;;;22.82;43.32;102253.59;5017764;28;101108;-34
2022/05/14 10:10:38;;;;;;;20.90;4.78;;;;;;;22.53;45.38;102249.84;5017700;28;96684;-34
2022/05/14 10:13:11;;;;;;;27.05;4.68;;;;;;;22.15;46.17;102240.31;5048237;27;96803;-34
2022/05/14 10:15:50;;;;;;;16.42;4.28;;;;;;;22.00;45.73;102240.66;4997654;28;101050;-34
2022/05/14 10:18:52;;;;;;;16.50;4.15;;;;;;;21.63;45.09;102245.75;4997247;28;100961;-34
2022/05/14 10:21:33;;;;;;;23.35;4.70;;;;;;;21.24;47.30;102234.34;5015421;28;96650;-34
2022/05/14 10:27:07;;;;;;;24.05;5.10;;;;;;;22.34;46.11;102250.63;5015554;28;97135;-34
2022/05/14 10:30:05;;;;;;;16.00;4.53;;;;;;;22.57;44.65;102256.81;5015267;28;108013;-34
2022/05/14 10:32:32;;;;;;;13.30;4.80;;;;;;;22.90;44.45;102250.09;4997288;28;96662;-34
2022/05/14 10:35:18;;;;;;;23.48;5.90;;;;;;;22.65;43.11;102243.19;5015623;28;96723;-34
2022/05/14 10:38:01;;;;;;;12.88;4.93;;;;;;;22.58;44.01;102247.53;5015612;28;97981;-34
2022/05/14 10:40:38;;;;;;;14.88;4.68;;;;;;;22.73;42.89;102246.13;4997527;28;100832;-34
2022/05/14 10:43:19;;;;;;;14.73;4.32;;;;;;;22.95;43.83;102256.09;4997488;28;96620;-34
2022/05/14 10:45:46;;;;;;;12.65;4.45;;;;;;;23.29;44.28;102251.13;5014132;28;96808;-34
2022/05/14 10:48:27;;;;;;;13.40;4.65;;;;;;;23.63;43.15;102250.69;4996569;28;100870;-34
2022/05/14 10:50:54;;;;;;;23.47;5.53;;;;;;;23.80;42.82;102240.81;4997176;28;100696;-34
2022/05/14 10:53:19;;;;;;;23.17;4.63;;;;;;;23.76;41.35;102244.00;4997414;28;96610;-34
2022/05/14 10:56:09;;;;;;;18.92;4.65;;;;;;;23.39;41.41;102250.25;5015489;28;96883;-34
2022/05/14 10:58:45;;;;;;;16.33;4.85;;;;;;;23.61;42.51;102252.72;5013662;28;101449;-34
2022/05/14 11:01:27;;;;;;;14.32;4.35;;;;;;;23.29;41.84;102251.13;5013476;28;101341;-34
2022/05/14 11:04:20;;;;;;;11.38;4.45;;;;;;;22.95;41.96;102250.56;4997369;28;96665;-34
2022/05/14 11:06:54;;;;;;;13.20;4.40;;;;;;;22.90;43.82;102250.97;5013028;28;97086;-34
2022/05/14 11:09:23;;;;;;;19.33;5.15;;;;;;;22.83;39.96;102247.03;4996710;28;100163;-34
2022/05/14 11:11:56;;;;;;;14.65;6.03;;;;;;;22.92;42.33;102266.56;4996570;28;101417;-34
2022/05/14 11:14:21;;;;;;;19.02;5.85;;;;;;;22.68;43.49;102251.22;5015717;28;96745;-33
2022/05/14 11:16:50;;;;;;;20.35;5.13;;;;;;;22.62;44.05;102263.69;5015134;28;96917;-34
2022/05/14 11:19:29;;;;;;;21.52;5.30;;;;;;;22.64;43.63;102269.06;4996374;28;101655;-34
2022/05/14 11:21:55;;;;;;;10.60;3.35;;;;;;;22.53;44.72;102260.91;5013208;28;101201;-34
2022/05/14 11:24:35;;;;;;;18.08;3.60;;;;;;;22.89;42.08;102254.78;4996784;28;96606;-34
2022/05/14 11:27:01;;;;;;;15.68;4.40;;;;;;;22.95;43.76;102249.69;4996736;28;96770;-34
2022/05/14 11:29:30;;;;;;;23.35;4.15;;;;;;;22.89;44.19;102267.72;5014395;28;99391;-34
2022/05/14 11:32:13;;;;;;;12.70;5.35;;;;;;;22.75;44.16;102268.97;4996836;28;101124;-34
2022/05/14 11:35:00;;;;;;;18.80;4.85;;;;;;;22.67;44.56;102268.81;4996954;28;96549;-34
2022/05/14 11:37:38;;;;;;;15.57;5.15;;;;;;;23.10;44.33;102264.91;5014941;28;96502;-34
2022/05/14 11:40:20;;;;;;;12.55;4.15;;;;;;;23.17;43.47;102262.41;4995929;28;101259;-34
2022/05/14 11:43:31;;;;;;;16.48;3.75;;;;;;;23.53;42.81;102261.75;5012864;28;100640;-34
2022/05/14 11:46:27;;;;;;;9.63;3.90;;;;;;;23.84;43.07;102275.47;4997338;28;96760;-34
2022/05/14 11:49:21;;;;;;;20.23;3.97;;;;;;;23.73;41.95;102251.59;5014901;28;96660;-34
2022/05/14 11:52:12;;;;;;;8.77;3.40;;;;;;;23.80;42.33;102267.63;4996417;28;101282;-34